Time;durP1;ratioP1;P1;durP2;ratioP2;P2;SDS_P1;SDS_P2;PMS_P1;PMS_P2;Temp;Humidity;BMP_temperature;BMP_pressure;BME280_temperature;BME280_humidity;BME280_pressure;Samples;Min_cycle;Max_cycle;Signal;HPM_P1;HPM_P2
2022/05/12 00:00:30;;;;;;;4.28;3.17;;;17.80;80.20;;;;;;4983826;28;20545;-58
2022/05/12 00:02:57;;;;;;;5.80;3.25;;;17.60;80.70;;;;;;4984509;28;20030;-58
2022/05/12 00:05:23;;;;;;;3.10;2.90;;;17.60;81.00;;;;;;4984085;28;20122;-58
2022/05/12 00:07:49;;;;;;;4.63;3.70;;;17.40;81.80;;;;;;4982820;28;20043;-59
2022/05/12 00:10:19;;;;;;;6.40;3.88;;;17.40;82.10;;;;;;4981554;28;20107;-58
2022/05/12 00:12:45;;;;;;;5.07;3.80;;;17.30;82.50;;;;;;4981774;28;20501;-59
2022/05/12 00:15:22;;;;;;;6.43;3.78;;;17.20;82.80;;;;;;4984979;28;20027;-58
2022/05/12 00:17:47;;;;;;;4.63;3.35;;;17.20;82.50;;;;;;4986943;28;20049;-58
2022/05/12 00:20:16;;;;;;;4.25;3.45;;;17.30;82.50;;;;;;4983950;28;20019;-59
2022/05/12 00:22:43;;;;;;;10.45;3.53;;;17.30;82.50;;;;;;4983634;28;20387;-58
2022/05/12 00:25:11;;;;;;;4.28;3.88;;;17.30;82.60;;;;;;4986274;28;20023;-59
2022/05/12 00:27:37;;;;;;;3.63;3.22;;;17.40;82.80;;;;;;4984762;28;20034;-59
2022/05/12 00:30:05;;;;;;;5.15;3.70;;;17.30;82.90;;;;;;4978709;28;20042;-58
2022/05/12 00:32:31;;;;;;;3.40;3.10;;;17.30;83.00;;;;;;4982340;28;20031;-58
2022/05/12 00:34:56;;;;;;;5.93;3.88;;;17.30;83.10;;;;;;4983939;28;20559;-59
2022/05/12 00:37:22;;;;;;;4.47;3.33;;;17.30;83.10;;;;;;4982446;28;20050;-59
2022/05/12 00:39:47;;;;;;;8.20;3.65;;;17.30;83.40;;;;;;4978520;28;20109;-58
2022/05/12 00:42:13;;;;;;;3.85;3.30;;;17.30;82.90;;;;;;4983880;28;20033;-58
2022/05/12 00:44:39;;;;;;;3.80;3.42;;;17.30;83.10;;;;;;4982046;28;20489;-58
2022/05/12 00:47:04;;;;;;;4.53;3.65;;;17.30;82.80;;;;;;4962808;28;20027;-58
2022/05/12 00:49:37;;;;;;;8.32;3.75;;;17.40;82.60;;;;;;4979906;28;20058;-58
2022/05/12 00:52:26;;;;;;;4.90;3.25;;;17.40;85.60;;;;;;4979468;28;20023;-58
2022/05/12 00:55:01;;;;;;;6.45;3.83;;;17.50;87.50;;;;;;4983660;28;20035;-59
2022/05/12 00:57:36;;;;;;;5.97;4.13;;;17.70;89.70;;;;;;4982465;28;20066;-58
2022/05/12 01:00:05;;;;;;;4.75;3.70;;;17.80;89.70;;;;;;4982867;28;20117;-59
2022/05/12 01:02:32;;;;;;;6.18;3.58;;;18.00;90.10;;;;;;4972123;28;20643;-60
2022/05/12 01:04:58;;;;;;;6.20;4.10;;;18.00;90.20;;;;;;4985276;28;20042;-58
2022/05/12 01:07:24;;;;;;;4.30;3.90;;;18.00;90.30;;;;;;4980130;28;20426;-59
2022/05/12 01:09:50;;;;;;;4.60;3.58;;;18.00;89.80;;;;;;4981383;28;20035;-58
2022/05/12 01:12:16;;;;;;;5.43;3.92;;;17.90;89.80;;;;;;4979120;28;20026;-59
2022/05/12 01:14:41;;;;;;;5.88;4.10;;;17.90;90.00;;;;;;4986674;28;20358;-58
2022/05/12 01:17:08;;;;;;;16.30;4.18;;;17.80;90.10;;;;;;4979963;28;20391;-59
2022/05/12 01:19:36;;;;;;;5.47;4.40;;;17.70;90.40;;;;;;4981497;28;20516;-58
2022/05/12 01:22:05;;;;;;;4.60;3.95;;;17.60;90.70;;;;;;4981859;28;20030;-58
2022/05/12 01:24:38;;;;;;;5.38;4.32;;;17.50;90.90;;;;;;4983721;28;20034;-58
2022/05/12 01:27:20;;;;;;;7.10;4.57;;;17.50;91.20;;;;;;4980082;28;20026;-58
2022/05/12 01:29:55;;;;;;;6.60;4.30;;;17.40;91.50;;;;;;4984174;28;20045;-58
2022/05/12 01:32:23;;;;;;;4.65;4.00;;;17.30;91.90;;;;;;4962498;28;20035;-58
2022/05/12 01:34:49;;;;;;;5.22;4.20;;;17.30;92.00;;;;;;4961150;28;20406;-58
2022/05/12 01:37:15;;;;;;;4.47;3.85;;;17.30;92.20;;;;;;4965864;28;20035;-58
2022/05/12 01:39:40;;;;;;;6.57;4.00;;;17.20;92.40;;;;;;4962418;28;20031;-58
2022/05/12 01:42:09;;;;;;;4.43;3.50;;;17.20;92.40;;;;;;4962770;28;20050;-59
2022/05/12 01:44:35;;;;;;;3.80;3.50;;;17.20;92.40;;;;;;4965147;28;20031;-58
2022/05/12 01:47:02;;;;;;;3.40;3.05;;;17.20;92.50;;;;;;4961507;28;20486;-58
2022/05/12 01:49:27;;;;;;;3.45;3.22;;;17.20;92.20;;;;;;4962414;28;20036;-59
2022/05/12 01:51:55;;;;;;;3.42;2.90;;;17.20;92.20;;;;;;4962159;28;20069;-58
2022/05/12 01:54:21;;;;;;;4.05;2.92;;;17.30;92.10;;;;;;4963911;28;20442;-58
2022/05/12 01:56:47;;;;;;;4.18;3.45;;;17.30;92.00;;;;;;4962940;28;20379;-58
2022/05/12 01:59:12;;;;;;;4.32;3.63;;;17.30;92.10;;;;;;4959713;28;20031;-58
2022/05/12 02:01:38;;;;;;;3.83;3.50;;;17.40;92.10;;;;;;4962378;28;20035;-59
2022/05/12 02:04:05;;;;;;;3.78;3.45;;;17.40;91.90;;;;;;4960610;28;20028;-58
2022/05/12 02:06:31;;;;;;;3.38;3.17;;;17.40;91.90;;;;;;4963692;28;20058;-59
2022/05/12 02:08:57;;;;;;;3.17;2.88;;;17.40;92.00;;;;;;4964760;28;20032;-58
2022/05/12 02:11:23;;;;;;;4.22;3.60;;;17.40;92.00;;;;;;4959980;28;20035;-59
2022/05/12 02:13:49;;;;;;;5.30;3.05;;;17.30;92.00;;;;;;4961296;28;20031;-58
2022/05/12 02:16:15;;;;;;;4.10;3.50;;;17.30;92.10;;;;;;4965980;28;20033;-59
2022/05/12 02:18:40;;;;;;;3.75;3.20;;;17.30;92.20;;;;;;4961211;28;20033;-58
2022/05/12 02:21:06;;;;;;;3.38;3.08;;;17.30;92.30;;;;;;4961787;28;20373;-58
2022/05/12 02:23:32;;;;;;;3.40;3.10;;;17.30;92.20;;;;;;4961582;28;20553;-58
2022/05/12 02:25:57;;;;;;;3.58;3.08;;;17.30;92.30;;;;;;4965556;28;20027;-59
2022/05/12 02:28:23;;;;;;;3.45;3.08;;;17.30;92.40;;;;;;4962938;28;20356;-59
2022/05/12 02:30:49;;;;;;;4.05;3.15;;;17.30;92.40;;;;;;4958593;28;20118;-58
2022/05/12 02:33:14;;;;;;;4.60;3.50;;;17.30;92.60;;;;;;4963684;28;20023;-58
2022/05/12 02:35:40;;;;;;;3.38;3.03;;;17.30;92.70;;;;;;4964162;28;20114;-58
2022/05/12 02:38:07;;;;;;;3.63;2.90;;;17.20;92.70;;;;;;4962322;28;20103;-58
2022/05/12 02:40:32;;;;;;;3.88;3.03;;;17.20;92.80;;;;;;4965175;28;20043;-58
2022/05/12 02:42:58;;;;;;;3.88;3.58;;;17.20;92.90;;;;;;4960484;28;20030;-58
2022/05/12 02:45:25;;;;;;;3.60;3.30;;;17.20;93.00;;;;;;4959081;28;20173;-59
2022/05/12 02:47:51;;;;;;;4.15;3.40;;;17.10;93.10;;;;;;4964882;28;20027;-59
2022/05/12 02:50:17;;;;;;;4.30;3.40;;;17.00;93.30;;;;;;4965321;28;20085;-58
2022/05/12 02:52:43;;;;;;;4.20;3.10;;;17.00;93.70;;;;;;4959393;28;20050;-58
2022/05/12 02:55:09;;;;;;;4.10;3.47;;;16.90;93.80;;;;;;4968205;28;20422;-59
2022/05/12 02:57:35;;;;;;;4.47;3.72;;;16.90;94.00;;;;;;4969664;28;20022;-58
2022/05/12 03:00:03;;;;;;;5.28;3.03;;;16.80;94.20;;;;;;4964531;28;20042;-58
2022/05/12 03:02:28;;;;;;;4.68;3.15;;;16.80;94.40;;;;;;4965832;28;20516;-58
2022/05/12 03:04:54;;;;;;;5.43;3.42;;;16.80;94.70;;;;;;4959464;28;20042;-58
2022/05/12 03:07:19;;;;;;;3.80;3.38;;;16.70;95.20;;;;;;4970637;28;20023;-59
2022/05/12 03:09:45;;;;;;;6.93;3.53;;;16.80;95.00;;;;;;4964379;28;20680;-58
2022/05/12 03:12:11;;;;;;;5.20;3.50;;;16.80;95.00;;;;;;4964491;28;20023;-61
2022/05/12 03:14:36;;;;;;;3.50;2.92;;;16.80;95.10;;;;;;4969027;28;20065;-61
2022/05/12 03:17:02;;;;;;;3.78;3.47;;;16.80;95.10;;;;;;4965315;28;20038;-61
2022/05/12 03:19:28;;;;;;;3.38;2.97;;;16.80;95.20;;;;;;4958946;28;20122;-63
2022/05/12 03:21:54;;;;;;;3.50;3.00;;;16.80;95.20;;;;;;4962685;28;20502;-60
2022/05/12 03:24:19;;;;;;;4.10;3.08;;;16.80;95.40;;;;;;4962778;28;20031;-60
2022/05/12 03:26:46;;;;;;;4.07;3.10;;;16.80;95.40;;;;;;4967070;28;20034;-61
2022/05/12 03:29:12;;;;;;;3.70;3.40;;;16.70;95.40;;;;;;4963209;28;20031;-61
2022/05/12 03:31:38;;;;;;;3.63;3.33;;;16.70;95.40;;;;;;4961367;28;20037;-60
2022/05/12 03:34:05;;;;;;;8.02;3.78;;;16.60;96.00;;;;;;4961058;28;20042;-61
2022/05/12 03:36:35;;;;;;;6.10;3.05;;;16.60;96.10;;;;;;4967590;28;20109;-62
2022/05/12 03:39:02;;;;;;;6.00;3.17;;;16.60;96.50;;;;;;4959490;28;20023;-60
2022/05/12 03:41:28;;;;;;;5.53;3.28;;;16.60;96.00;;;;;;4966532;28;20023;-61
2022/05/12 03:46:37;;;;;;;4.15;2.92;;;16.60;96.50;;;;;;4969493;28;20046;-61
2022/05/12 03:49:03;;;;;;;3.53;3.22;;;16.60;96.10;;;;;;4961452;28;20031;-61
2022/05/12 03:51:29;;;;;;;3.17;2.78;;;16.60;96.20;;;;;;4962162;28;20603;-61
2022/05/12 03:53:54;;;;;;;5.22;3.47;;;16.70;96.10;;;;;;4965550;28;20037;-60
2022/05/12 03:56:21;;;;;;;3.67;3.03;;;16.80;95.70;;;;;;4967032;28;20437;-62
2022/05/12 03:58:47;;;;;;;3.78;2.92;;;16.90;95.70;;;;;;4963637;28;20023;-60
2022/05/12 04:01:13;;;;;;;4.43;2.85;;;17.00;95.40;;;;;;4965484;28;21002;-60
2022/05/12 04:03:41;;;;;;;4.75;2.65;;;17.00;95.20;;;;;;4962421;28;20062;-61
2022/05/12 04:06:07;;;;;;;2.95;2.67;;;17.10;95.10;;;;;;4961809;28;20405;-60
2022/05/12 04:08:33;;;;;;;3.00;2.80;;;17.20;95.00;;;;;;4966819;28;20031;-61
2022/05/12 04:11:00;;;;;;;3.47;2.40;;;17.30;94.40;;;;;;4958216;28;20039;-61
2022/05/12 04:13:26;;;;;;;5.97;2.78;;;17.40;94.10;;;;;;4962610;28;20054;-60
2022/05/12 04:15:52;;;;;;;2.45;2.10;;;17.50;94.10;;;;;;4961615;28;20450;-60
2022/05/12 04:18:18;;;;;;;4.20;2.60;;;17.50;93.60;;;;;;4970079;28;20015;-63
2022/05/12 04:20:43;;;;;;;2.60;2.30;;;17.60;93.40;;;;;;4985963;28;20034;-61
2022/05/12 04:23:09;;;;;;;2.33;2.10;;;17.60;93.40;;;;;;4983811;28;20077;-61
2022/05/12 04:25:35;;;;;;;2.83;2.63;;;17.70;93.10;;;;;;4985434;28;20026;-61
2022/05/12 04:28:02;;;;;;;3.65;2.42;;;17.80;93.20;;;;;;4984479;28;20029;-62
2022/05/12 04:30:28;;;;;;;3.25;2.72;;;17.80;93.20;;;;;;4981004;28;20462;-61
2022/05/12 04:32:54;;;;;;;6.53;2.47;;;17.90;93.00;;;;;;4980298;28;20037;-61
2022/05/12 04:35:20;;;;;;;4.22;2.42;;;18.00;93.00;;;;;;4981424;28;20043;-61
2022/05/12 04:37:54;;;;;;;4.47;2.75;;;18.00;92.70;;;;;;4977741;28;20027;-61
2022/05/12 04:40:30;;;;;;;3.55;2.50;;;18.10;92.60;;;;;;4966454;28;20030;-61
2022/05/12 04:42:57;;;;;;;3.13;2.30;;;18.20;92.30;;;;;;4977555;28;20366;-61
2022/05/12 04:45:26;;;;;;;2.20;2.00;;;18.30;92.00;;;;;;4982018;28;20034;-61
2022/05/12 04:47:52;;;;;;;5.45;2.35;;;18.40;91.80;;;;;;4973871;28;20039;-63
2022/05/12 04:50:21;;;;;;;2.88;2.55;;;18.50;91.70;;;;;;4983467;28;20034;-62
2022/05/12 04:52:47;;;;;;;3.22;2.45;;;18.70;91.40;;;;;;4980989;28;20041;-61
2022/05/12 04:55:13;;;;;;;3.05;2.20;;;18.70;91.00;;;;;;4980674;28;20034;-61
2022/05/12 04:57:49;;;;;;;3.90;2.20;;;18.90;90.70;;;;;;4986853;28;20489;-61
2022/05/12 05:00:22;;;;;;;2.75;2.20;;;19.00;90.50;;;;;;4983800;28;20072;-64
2022/05/12 05:02:48;;;;;;;2.47;1.92;;;19.10;90.50;;;;;;4979807;28;20038;-61
2022/05/12 05:05:14;;;;;;;2.33;2.13;;;19.30;90.00;;;;;;4984501;28;20045;-62
2022/05/12 05:07:40;;;;;;;3.40;2.03;;;19.50;89.70;;;;;;4984316;28;20035;-61
2022/05/12 05:10:07;;;;;;;5.72;2.10;;;19.70;88.10;;;;;;4965668;28;20038;-63
2022/05/12 05:12:32;;;;;;;6.15;2.05;;;19.90;87.30;;;;;;4983176;28;20493;-63
2022/05/12 05:14:59;;;;;;;2.20;2.00;;;20.10;87.60;;;;;;4978003;28;20035;-61
2022/05/12 05:17:25;;;;;;;5.72;2.10;;;20.90;85.50;;;;;;4979214;28;20023;-61
2022/05/12 05:19:51;;;;;;;4.10;1.67;;;22.20;81.40;;;;;;4984887;28;20502;-62
2022/05/12 05:22:17;;;;;;;2.25;1.60;;;23.80;75.20;;;;;;4983737;28;20138;-62
2022/05/12 05:24:43;;;;;;;3.50;1.80;;;25.00;68.70;;;;;;4985659;28;20664;-61
2022/05/12 05:27:09;;;;;;;2.30;1.40;;;26.00;67.30;;;;;;4979176;28;20030;-63
2022/05/12 05:29:42;;;;;;;2.47;1.40;;;26.90;61.60;;;;;;4984345;28;20038;-63
2022/05/12 05:32:12;;;;;;;5.55;1.35;;;27.60;60.10;;;;;;4982197;28;20113;-62
2022/05/12 05:34:38;;;;;;;4.40;1.50;;;28.40;56.80;;;;;;4985921;28;20042;-62
2022/05/12 05:37:04;;;;;;;3.90;1.40;;;28.50;56.20;;;;;;4983332;28;20019;-62
2022/05/12 05:39:30;;;;;;;2.17;1.48;;;29.00;55.70;;;;;;4984939;28;20026;-63
2022/05/12 05:42:06;;;;;;;1.60;1.20;;;29.70;53.30;;;;;;4979092;28;20031;-63
2022/05/12 05:44:32;;;;;;;4.57;1.10;;;30.30;52.10;;;;;;4963453;28;20042;-62
2022/05/12 05:47:02;;;;;;;2.72;1.30;;;30.80;51.40;;;;;;4962657;28;20503;-63
2022/05/12 05:49:32;;;;;;;1.38;1.10;;;31.30;49.90;;;;;;4955137;28;20502;-63
2022/05/12 05:54:42;;;;;;;3.55;1.10;;;31.30;48.30;;;;;;4960462;28;20273;-62
2022/05/12 05:57:08;;;;;;;2.45;1.10;;;31.00;48.80;;;;;;4962562;28;20015;-62
2022/05/12 05:59:34;;;;;;;2.35;1.13;;;31.50;48.90;;;;;;4961098;28;20106;-63
2022/05/12 06:02:02;;;;;;;2.35;1.10;;;31.40;47.70;;;;;;4958533;28;20068;-61
2022/05/12 06:04:28;;;;;;;6.57;1.02;;;31.00;49.20;;;;;;4959927;28;20041;-62
2022/05/12 06:06:53;;;;;;;1.17;1.00;;;31.20;48.30;;;;;;4961100;28;20022;-62
2022/05/12 06:09:20;;;;;;;1.95;1.08;;;31.40;48.60;;;;;;4964415;28;20036;-64
2022/05/12 06:11:48;;;;;;;2.88;1.20;;;31.70;48.30;;;;;;4958133;28;20038;-62
2022/05/12 06:14:14;;;;;;;2.08;1.00;;;32.10;47.20;;;;;;4963877;28;20023;-62
2022/05/12 06:16:39;;;;;;;1.88;1.05;;;32.60;46.90;;;;;;4959631;28;20077;-62
2022/05/12 06:19:05;;;;;;;4.32;1.40;;;33.10;45.70;;;;;;4965159;28;20026;-64
2022/05/12 06:21:33;;;;;;;1.33;0.77;;;33.60;44.40;;;;;;4960362;28;20073;-62
2022/05/12 06:23:59;;;;;;;2.65;1.00;;;32.50;45.10;;;;;;4960247;28;20136;-64
2022/05/12 06:26:25;;;;;;;2.90;0.95;;;31.50;47.70;;;;;;4962357;28;20479;-62
2022/05/12 06:28:50;;;;;;;3.60;1.55;;;31.30;48.60;;;;;;4961817;28;20024;-62
2022/05/12 06:31:24;;;;;;;5.72;1.23;;;31.10;48.50;;;;;;4957987;28;20035;-62
2022/05/12 06:33:50;;;;;;;5.93;1.45;;;30.50;48.40;;;;;;4962790;28;20110;-65
2022/05/12 06:36:16;;;;;;;1.25;1.08;;;30.60;49.10;;;;;;4962604;28;20046;-62
2022/05/12 06:38:42;;;;;;;2.45;0.98;;;30.60;49.60;;;;;;4985690;28;20081;-63
2022/05/12 06:41:10;;;;;;;2.05;1.30;;;30.70;49.00;;;;;;4968905;28;20051;-62
2022/05/12 06:43:36;;;;;;;1.20;1.10;;;30.60;48.30;;;;;;4958939;28;20054;-64
2022/05/12 06:46:03;;;;;;;6.55;1.20;;;30.20;49.70;;;;;;4958619;28;20506;-61
2022/05/12 06:48:29;;;;;;;2.75;1.30;;;30.00;49.70;;;;;;4960372;28;20031;-62
2022/05/12 06:50:58;;;;;;;2.05;1.10;;;30.00;49.90;;;;;;4956893;28;20030;-63
2022/05/12 06:53:24;;;;;;;6.72;1.35;;;30.30;50.40;;;;;;4960201;28;20027;-62
2022/05/12 06:55:50;;;;;;;2.50;1.13;;;30.80;48.60;;;;;;4961254;28;20126;-62
2022/05/12 06:58:17;;;;;;;1.65;0.93;;;30.50;48.80;;;;;;4967218;28;20027;-62
2022/05/12 07:00:43;;;;;;;4.88;1.27;;;30.10;49.40;;;;;;4964590;28;20122;-66
2022/05/12 07:03:11;;;;;;;1.63;1.05;;;29.60;50.70;;;;;;4963355;28;20038;-63
2022/05/12 07:05:38;;;;;;;4.40;1.40;;;29.40;51.10;;;;;;4960907;28;20043;-62
2022/05/12 07:08:05;;;;;;;2.15;1.13;;;29.10;51.10;;;;;;4962537;28;20034;-60
2022/05/12 07:10:31;;;;;;;3.35;1.20;;;28.80;51.30;;;;;;4962661;28;20046;-60
2022/05/12 07:12:57;;;;;;;3.05;1.20;;;29.10;51.20;;;;;;4962509;28;20677;-59
2022/05/12 07:15:25;;;;;;;2.25;1.25;;;29.60;50.30;;;;;;4960900;28;20046;-60
2022/05/12 07:17:51;;;;;;;2.08;1.10;;;30.00;49.30;;;;;;4975171;28;20043;-60
2022/05/12 07:28:32;;;;;;;4.13;1.38;;;27.80;53.10;;;;;;4960531;28;20074;-60
2022/05/12 07:31:01;;;;;;;3.63;1.20;;;27.80;53.50;;;;;;4963431;28;20031;-60
2022/05/12 07:33:31;;;;;;;4.18;1.20;;;27.20;53.20;;;;;;4961776;28;20077;-60
2022/05/12 07:35:58;;;;;;;2.80;1.23;;;26.40;55.00;;;;;;4976157;28;20034;-59
2022/05/12 07:38:24;;;;;;;3.58;1.10;;;26.50;55.20;;;;;;4985863;28;20027;-59
2022/05/12 07:40:50;;;;;;;4.20;1.10;;;27.00;54.90;;;;;;4980110;28;20046;-59
2022/05/12 07:43:16;;;;;;;2.00;1.10;;;27.60;54.50;;;;;;4980712;28;20046;-60
2022/05/12 07:45:41;;;;;;;2.58;1.10;;;27.90;52.90;;;;;;4982849;28;20496;-59
2022/05/12 07:48:07;;;;;;;4.47;1.05;;;27.70;52.80;;;;;;4982099;28;20030;-62
2022/05/12 07:50:33;;;;;;;3.28;1.20;;;27.30;54.20;;;;;;4983267;28;20027;-62
2022/05/12 07:52:59;;;;;;;4.78;1.02;;;27.00;54.70;;;;;;4967044;28;20076;-62
2022/05/12 07:55:24;;;;;;;2.10;1.00;;;26.50;54.70;;;;;;4984225;28;20046;-62
2022/05/12 07:57:51;;;;;;;2.67;1.33;;;25.80;55.70;;;;;;4979462;28;21020;-62
2022/05/12 08:00:17;;;;;;;4.57;1.20;;;25.40;57.40;;;;;;4984489;28;20022;-62
2022/05/12 08:02:44;;;;;;;3.50;0.98;;;25.00;57.30;;;;;;4985219;28;20039;-62
2022/05/12 08:05:09;;;;;;;1.48;0.90;;;25.00;57.70;;;;;;4983253;28;20516;-62
2022/05/12 08:07:35;;;;;;;4.50;1.10;;;24.50;59.50;;;;;;4977846;28;20034;-64
2022/05/12 08:10:01;;;;;;;1.55;0.98;;;24.00;59.50;;;;;;4986320;28;20019;-61
2022/05/12 08:12:27;;;;;;;2.47;1.20;;;23.80;61.10;;;;;;4983510;28;20031;-61
2022/05/12 08:14:54;;;;;;;5.82;1.33;;;23.60;61.30;;;;;;4979991;28;20042;-61
2022/05/12 08:17:22;;;;;;;5.55;1.30;;;23.30;63.20;;;;;;4986079;28;20052;-61
2022/05/12 08:19:48;;;;;;;5.55;1.80;;;23.10;63.00;;;;;;4981296;28;20027;-62
2022/05/12 08:22:13;;;;;;;3.47;1.10;;;23.10;63.20;;;;;;4976909;28;20417;-61
2022/05/12 08:24:39;;;;;;;3.97;1.10;;;23.20;64.10;;;;;;4979886;28;20481;-59
2022/05/12 08:27:05;;;;;;;2.78;1.10;;;23.20;62.50;;;;;;4982325;28;20035;-59
2022/05/12 08:29:30;;;;;;;4.82;1.20;;;23.40;61.70;;;;;;4979607;28;20030;-59
2022/05/12 08:31:56;;;;;;;5.80;1.30;;;23.50;62.30;;;;;;4978663;28;20033;-59
2022/05/12 08:34:21;;;;;;;3.78;1.20;;;24.10;62.60;;;;;;4978756;28;20026;-59
2022/05/12 08:36:49;;;;;;;2.95;1.20;;;25.30;60.70;;;;;;4970518;28;20403;-60
2022/05/12 08:39:16;;;;;;;2.80;1.17;;;27.30;57.20;;;;;;4986331;28;20030;-59
2022/05/12 08:42:12;;;;;;;5.00;1.17;;;28.90;53.10;;;;;;4980516;28;20043;-60
2022/05/12 08:44:39;;;;;;;3.45;0.80;;;29.50;51.30;;;;;;4979780;28;20185;-60
2022/05/12 08:47:10;;;;;;;4.20;1.00;;;30.40;49.80;;;;;;4979451;28;20189;-60
2022/05/12 08:49:39;;;;;;;;;;;31.10;48.60;;;;;;4983676;28;20034;-59
2022/05/12 08:52:14;;;;;;;8.18;1.00;;;31.20;47.50;;;;;;4983946;28;20409;-59
2022/05/12 08:54:45;;;;;;;2.40;0.93;;;30.00;48.00;;;;;;4981297;28;20037;-60
2022/05/12 08:57:27;;;;;;;7.22;1.10;;;28.70;52.30;;;;;;4985486;28;20118;-61
2022/05/12 08:59:53;;;;;;;4.72;1.10;;;27.80;53.60;;;;;;4977811;28;20031;-59
2022/05/12 09:02:27;;;;;;;1.60;0.88;;;26.90;55.10;;;;;;4976776;28;20122;-59
2022/05/12 09:04:58;;;;;;;1.73;1.00;;;26.20;56.70;;;;;;4977878;28;20764;-59
2022/05/12 09:07:34;;;;;;;;;;;25.80;58.80;;;;;;4982348;28;20034;-59
2022/05/12 09:10:12;;;;;;;2.42;1.17;;;25.20;58.80;;;;;;4982371;28;19925;-59
2022/05/12 09:13:10;;;;;;;4.43;1.27;;;24.80;58.70;;;;;;4978640;28;20390;-59
2022/05/12 09:15:40;;;;;;;3.92;1.45;;;24.00;60.60;;;;;;4979713;28;20734;-59
2022/05/12 09:18:26;;;;;;;4.40;1.30;;;23.50;64.20;;;;;;4983925;28;20037;-59
2022/05/12 09:20:52;;;;;;;3.38;1.10;;;23.20;63.30;;;;;;4962743;28;20510;-59
2022/05/12 09:23:18;;;;;;;3.05;1.05;;;23.20;64.60;;;;;;4979941;28;20198;-59
2022/05/12 09:25:49;;;;;;;7.03;1.40;;;23.50;63.50;;;;;;4981850;28;20494;-59
2022/05/12 09:28:34;;;;;;;2.78;1.30;;;23.80;63.40;;;;;;4980637;28;20513;-59
2022/05/12 09:31:15;;;;;;;6.22;1.20;;;24.20;62.20;;;;;;4986108;28;20034;-59
2022/05/12 09:33:42;;;;;;;1.48;1.02;;;24.60;60.90;;;;;;4980274;28;20154;-59
2022/05/12 09:36:25;;;;;;;5.22;1.20;;;25.60;59.10;;;;;;4979965;28;20029;-59
2022/05/12 09:38:54;;;;;;;3.22;1.00;;;26.00;59.70;;;;;;4983577;28;20113;-60
2022/05/12 09:41:37;;;;;;;2.50;1.23;;;26.50;57.70;;;;;;4981158;28;20034;-59
2022/05/12 09:44:22;;;;;;;3.70;1.33;;;27.40;56.20;;;;;;4979126;28;20049;-60
2022/05/12 09:47:12;;;;;;;2.72;0.77;;;28.50;52.40;;;;;;4982767;28;20035;-60
2022/05/12 09:49:41;;;;;;;3.80;1.00;;;29.30;50.20;;;;;;4973032;28;20458;-60
2022/05/12 09:52:28;;;;;;;3.13;1.08;;;29.40;51.60;;;;;;4976987;28;20065;-60
2022/05/12 09:55:13;;;;;;;2.17;0.90;;;29.70;50.60;;;;;;4980202;28;20041;-60
2022/05/12 09:57:52;;;;;;;6.07;0.88;;;29.50;49.40;;;;;;4982562;28;20080;-60
2022/05/12 10:00:32;;;;;;;11.68;0.90;;;29.80;50.90;;;;;;4981979;28;20031;-60
2022/05/12 10:09:17;;;;;;;4.45;0.73;;;32.40;46.40;;;;;;4982729;28;20508;-60
2022/05/12 10:11:48;;;;;;;2.08;0.77;;;32.10;45.10;;;;;;4985278;28;20042;-60
2022/05/12 10:14:33;;;;;;;1.33;0.55;;;32.00;44.60;;;;;;4980562;28;20065;-60
2022/05/12 10:17:02;;;;;;;1.40;0.70;;;31.70;45.40;;;;;;4979122;28;20035;-60
2022/05/12 10:19:29;;;;;;;4.45;0.90;;;30.50;46.30;;;;;;4982860;28;20140;-60
2022/05/12 10:22:16;;;;;;;4.75;0.80;;;29.60;47.50;;;;;;4982108;28;20088;-59
2022/05/12 10:25:06;;;;;;;3.60;0.60;;;29.30;49.50;;;;;;4977487;28;20521;-59
2022/05/12 10:27:38;;;;;;;2.50;0.73;;;29.20;49.70;;;;;;4983780;28;20034;-60
2022/05/12 10:30:27;;;;;;;3.67;0.75;;;28.60;48.20;;;;;;4976048;28;20023;-59
2022/05/12 10:33:31;;;;;;;1.77;0.80;;;28.20;50.50;;;;;;4982872;28;20494;-59
2022/05/12 10:36:15;;;;;;;1.15;0.70;;;28.90;49.10;;;;;;4927017;29;20043;-60
2022/05/12 10:38:59;;;;;;;4.85;0.93;;;29.90;47.30;;;;;;4976772;28;20046;-60
2022/05/12 10:41:33;;;;;;;2.42;1.05;;;30.30;44.70;;;;;;4962356;28;20103;-59
2022/05/12 10:44:26;;;;;;;2.40;0.68;;;29.90;45.40;;;;;;4965740;28;20490;-60
2022/05/12 10:47:04;;;;;;;1.15;0.60;;;29.10;46.40;;;;;;4955038;28;20511;-59
2022/05/12 10:49:37;;;;;;;3.35;0.90;;;29.10;48.10;;;;;;4962447;28;20035;-59
2022/05/12 10:52:08;;;;;;;2.60;0.90;;;29.80;49.90;;;;;;4965659;28;20398;-59
2022/05/12 10:54:34;;;;;;;5.75;0.70;;;30.40;47.10;;;;;;4962803;28;20026;-59
2022/05/12 10:57:11;;;;;;;7.22;0.90;;;30.40;47.10;;;;;;4959488;28;20054;-59
2022/05/12 10:59:55;;;;;;;2.40;0.82;;;30.50;46.40;;;;;;4961706;28;20053;-59
2022/05/12 11:02:40;;;;;;;3.17;1.02;;;30.70;47.70;;;;;;4957491;28;20494;-59
2022/05/12 11:05:21;;;;;;;1.80;0.77;;;30.30;46.90;;;;;;4957355;28;20685;-59
2022/05/12 11:08:10;;;;;;;1.27;0.88;;;30.10;48.20;;;;;;4959859;28;20494;-59
2022/05/12 11:10:59;;;;;;;1.98;0.77;;;30.00;48.00;;;;;;4965320;28;20453;-59
2022/05/12 11:13:34;;;;;;;1.60;0.70;;;29.30;47.90;;;;;;4958553;28;20414;-59
2022/05/12 11:16:08;;;;;;;3.03;1.02;;;28.90;47.80;;;;;;4961007;28;20093;-59
2022/05/12 11:19:02;;;;;;;2.88;0.80;;;28.50;48.20;;;;;;4963755;28;20525;-59
2022/05/12 11:21:29;;;;;;;2.25;1.13;;;28.20;48.90;;;;;;4964692;28;20039;-59
2022/05/12 11:24:12;;;;;;;1.95;0.73;;;28.30;49.60;;;;;;4960591;28;20038;-59
2022/05/12 11:26:55;;;;;;;4.68;0.80;;;28.30;48.40;;;;;;4965494;28;20027;-59
2022/05/12 11:29:45;;;;;;;3.03;0.88;;;28.20;50.10;;;;;;4965485;28;20033;-59
2022/05/12 11:32:29;;;;;;;2.08;0.77;;;28.00;50.40;;;;;;4964365;28;20031;-59
2022/05/12 11:35:00;;;;;;;2.85;0.80;;;28.20;51.60;;;;;;4959083;28;20050;-59
2022/05/12 11:37:37;;;;;;;1.98;0.90;;;28.50;51.40;;;;;;4963531;28;20074;-59
2022/05/12 11:40:08;;;;;;;2.35;0.85;;;28.60;50.80;;;;;;4961126;28;20042;-59
2022/05/12 11:45:42;;;;;;;0.90;0.68;;;29.30;49.30;;;;;;4964985;28;20049;-59
2022/05/12 11:48:35;;;;;;;1.90;0.93;;;29.90;48.20;;;;;;4966184;28;20038;-60
2022/05/12 11:51:44;;;;;;;3.20;0.85;;;30.60;46.60;;;;;;4965908;28;20050;-60
2022/05/12 11:54:26;;;;;;;2.10;0.90;;;31.20;46.50;;;;;;4964204;28;20058;-59
2022/05/12 11:56:55;;;;;;;2.40;0.77;;;31.40;44.30;;;;;;4965697;28;20043;-59
2022/05/12 11:59:40;;;;;;;5.25;0.80;;;31.20;45.20;;;;;;4980318;28;20023;-59
2022/05/12 12:02:27;;;;;;;0.95;0.80;;;30.90;44.90;;;;;;4985598;28;20058;-60
2022/05/12 12:04:57;;;;;;;2.25;0.90;;;30.70;45.30;;;;;;4980873;28;20078;-60
2022/05/12 12:07:32;;;;;;;2.47;0.98;;;30.40;47.00;;;;;;4965292;28;20042;-60
2022/05/12 12:10:25;;;;;;;1.73;0.60;;;30.40;47.00;;;;;;4983985;28;20137;-60
2022/05/12 12:13:00;;;;;;;3.70;0.70;;;30.50;47.20;;;;;;4982354;28;20031;-60
2022/05/12 12:15:30;;;;;;;2.90;0.70;;;31.00;46.40;;;;;;4983483;28;20038;-60
2022/05/12 12:17:58;;;;;;;1.63;0.80;;;31.00;44.80;;;;;;4981186;28;20429;-60
2022/05/12 12:20:30;;;;;;;2.15;0.85;;;30.80;43.70;;;;;;4984691;28;20035;-59
2022/05/12 12:23:14;;;;;;;0.98;0.63;;;30.20;45.10;;;;;;4984325;28;20065;-60
2022/05/12 12:25:43;;;;;;;2.95;0.77;;;30.20;45.90;;;;;;4976558;28;20030;-60
2022/05/12 12:28:41;;;;;;;2.08;0.75;;;30.30;47.10;;;;;;4975296;28;20038;-59
2022/05/12 12:31:24;;;;;;;2.60;0.80;;;30.50;46.80;;;;;;4983647;28;20031;-59
2022/05/12 12:34:07;;;;;;;4.00;0.70;;;30.80;46.30;;;;;;4980419;28;20049;-59
2022/05/12 12:36:35;;;;;;;3.20;0.68;;;31.00;43.60;;;;;;4983838;28;20014;-60
2022/05/12 12:39:01;;;;;;;2.05;1.20;;;31.30;44.30;;;;;;4959742;28;20019;-60
2022/05/12 12:41:29;;;;;;;1.95;0.60;;;31.20;45.70;;;;;;4966560;28;20367;-59
2022/05/12 12:44:03;;;;;;;2.85;0.80;;;30.90;42.90;;;;;;4986467;28;20494;-59
2022/05/12 12:47:11;;;;;;;4.97;1.15;;;30.80;44.90;;;;;;4983557;28;20486;-60
2022/05/12 12:49:56;;;;;;;1.15;0.70;;;30.70;42.90;;;;;;4930061;29;20409;-59
2022/05/12 12:52:22;;;;;;;2.58;0.70;;;30.30;42.80;;;;;;4973041;28;20490;-59
2022/05/12 12:57:46;;;;;;;2.78;0.50;;;30.60;42.90;;;;;;4959701;28;20446;-59
2022/05/12 13:00:33;;;;;;;1.55;0.82;;;30.70;43.00;;;;;;4965818;28;20286;-59
2022/05/12 13:03:19;;;;;;;7.68;1.30;;;30.80;43.10;;;;;;4966301;28;20125;-60
2022/05/12 13:05:45;;;;;;;2.30;0.70;;;31.20;42.90;;;;;;4980574;28;20057;-60
2022/05/12 13:08:42;;;;;;;2.78;0.82;;;31.30;41.30;;;;;;4984431;28;20025;-59
2022/05/12 13:11:17;;;;;;;2.85;0.70;;;31.50;40.70;;;;;;4952963;28;20118;-59
2022/05/12 13:13:52;;;;;;;4.65;0.73;;;31.20;39.60;;;;;;4964060;28;20034;-60
2022/05/12 13:16:21;;;;;;;2.75;0.65;;;30.90;42.70;;;;;;4964063;28;20026;-59
2022/05/12 13:18:50;;;;;;;6.22;0.82;;;30.80;42.40;;;;;;4963902;28;20039;-59
2022/05/12 13:21:24;;;;;;;3.63;0.70;;;30.80;41.50;;;;;;4964418;28;20026;-63
2022/05/12 13:24:04;;;;;;;0.68;0.50;;;31.00;40.90;;;;;;4961529;28;20089;-59
2022/05/12 13:26:31;;;;;;;2.50;0.63;;;30.70;40.90;;;;;;4963462;28;20042;-59
2022/05/12 13:28:58;;;;;;;1.10;0.50;;;30.10;42.20;;;;;;4960625;28;20027;-59
2022/05/12 13:31:26;;;;;;;2.78;0.75;;;29.90;43.50;;;;;;4971114;28;20076;-59